Terminal Aerodrome Forecast
Issued by NWS Charleston, SC

Home | Current Version | Previous Version | Text Only | Print | Product List | Glossary On
Versions: 1 2 3 4 5 6 7 8 9 10 11 12 13 14 15 16 17 18
000
FTUS42 KCHS 301730
TAFCHS
TAF
KCHS 301730Z 3018/3118 14013G18KT P6SM VCSH SCT025 BKN040
      TEMPO 3018/3020 5SM SHRA FEW020 BKN030
     FM310000 14009KT P6SM SCT015 BKN035
     FM310600 19008KT P6SM SCT015 BKN040
     FM310900 20010KT P6SM VCSH SCT015 BKN030
     FM311400 23015G25KT P6SM BKN050=

USA.gov is the U.S. government's official web portal to all federal, state and local government web resources and services.